createdAt,value
2018-09-26T00:00:03.825Z,1.23
2018-09-26T00:02:36.256Z,1.10
2018-09-26T00:05:04.980Z,1.23
2018-09-26T00:07:33.509Z,1.00
2018-09-26T00:10:02.114Z,1.23
2018-09-26T00:12:30.697Z,1.20
2018-09-26T00:14:58.982Z,1.33
2018-09-26T00:17:27.448Z,1.33
2018-09-26T00:19:55.845Z,1.73
2018-09-26T00:22:24.652Z,1.10
2018-09-26T00:24:53.172Z,1.40
2018-09-26T00:27:21.814Z,0.90
2018-09-26T00:29:50.502Z,1.20
2018-09-26T00:32:18.825Z,1.20
2018-09-26T00:34:47.320Z,1.27
2018-09-26T00:37:15.941Z,2.00
2018-09-26T00:39:44.417Z,1.83
2018-09-26T00:42:12.794Z,2.10
2018-09-26T00:44:41.272Z,2.17
2018-09-26T00:47:09.732Z,3.00
2018-09-26T00:49:38.367Z,2.37
2018-09-26T00:52:06.774Z,1.90
2018-09-26T00:54:35.272Z,2.07
2018-09-26T00:57:03.857Z,2.37
2018-09-26T00:59:32.485Z,1.83
2018-09-26T01:02:01.002Z,2.30
2018-09-26T01:04:29.394Z,2.13
2018-09-26T01:06:58.004Z,1.73
2018-09-26T01:09:26.481Z,2.23
2018-09-26T01:11:55.092Z,2.07
2018-09-26T01:14:24.520Z,2.10
2018-09-26T01:16:52.928Z,2.27
2018-09-26T01:19:21.467Z,2.03
2018-09-26T01:21:50.029Z,2.07
2018-09-26T01:24:18.456Z,2.17
2018-09-26T01:26:46.647Z,1.80
2018-09-26T01:29:15.141Z,2.53
2018-09-26T01:31:43.590Z,2.30
2018-09-26T01:34:12.050Z,2.40
2018-09-26T01:36:40.684Z,2.20
2018-09-26T01:39:10.020Z,2.30
2018-09-26T01:42:41.219Z,1.97
2018-09-26T01:45:09.675Z,2.10
2018-09-26T01:47:38.344Z,2.50
2018-09-26T01:50:06.961Z,2.53
2018-09-26T01:52:35.411Z,2.43
2018-09-26T01:55:04.038Z,2.33
2018-09-26T01:57:32.489Z,2.17
2018-09-26T02:00:01.102Z,2.73
2018-09-26T02:02:29.745Z,2.60
2018-09-26T02:04:58.397Z,2.20
2018-09-26T02:07:26.785Z,2.43
2018-09-26T02:09:55.041Z,2.83
2018-09-26T02:12:23.477Z,2.23
2018-09-26T02:14:51.969Z,2.47
2018-09-26T02:17:20.624Z,2.20
2018-09-26T02:19:49.232Z,1.97
2018-09-26T02:22:17.928Z,2.47
2018-09-26T02:24:46.482Z,2.13
2018-09-26T02:27:15.142Z,2.33
2018-09-26T02:29:44.187Z,1.47
2018-09-26T02:32:12.785Z,1.67
2018-09-26T02:34:41.438Z,1.87
2018-09-26T02:37:10.049Z,1.50
2018-09-26T02:39:39.436Z,1.40
2018-09-26T02:42:07.708Z,1.53
2018-09-26T02:44:35.954Z,1.90
2018-09-26T02:47:04.194Z,1.60
2018-09-26T02:49:32.431Z,1.57
2018-09-26T02:52:00.901Z,1.60
2018-09-26T02:54:29.361Z,1.50
2018-09-26T02:56:57.975Z,1.70
2018-09-26T02:59:26.616Z,1.43
2018-09-26T03:01:55.104Z,1.30
2018-09-26T03:04:23.692Z,1.40
2018-09-26T03:06:52.116Z,1.40
2018-09-26T03:09:20.660Z,1.57
2018-09-26T03:11:49.229Z,1.47
2018-09-26T03:14:17.844Z,1.80
2018-09-26T03:16:46.237Z,1.60
2018-09-26T03:19:14.487Z,1.30
2018-09-26T03:21:42.972Z,1.40
2018-09-26T03:24:11.607Z,1.30
2018-09-26T03:26:40.045Z,1.10
2018-09-26T03:29:08.781Z,1.00
2018-09-26T03:31:37.317Z,1.43
2018-09-26T03:34:05.804Z,1.30
2018-09-26T03:36:34.384Z,1.70
2018-09-26T03:39:03.181Z,1.00
2018-09-26T03:41:31.438Z,2.30
2018-09-26T03:43:59.689Z,2.03
2018-09-26T03:46:28.347Z,2.53
2018-09-26T03:48:56.985Z,2.77
2018-09-26T03:51:25.608Z,2.87
2018-09-26T03:53:54.278Z,2.60
2018-09-26T03:56:22.828Z,2.70
2018-09-26T03:58:51.387Z,2.60
2018-09-26T04:01:19.972Z,2.57
2018-09-26T04:03:48.595Z,2.57
2018-09-26T04:06:17.292Z,2.40
2018-09-26T04:08:45.897Z,2.53
2018-09-26T04:11:14.532Z,2.90
2018-09-26T04:13:43.161Z,2.87
2018-09-26T04:16:12.166Z,3.10
2018-09-26T04:18:40.984Z,2.40
2018-09-26T04:21:09.652Z,2.70
2018-09-26T04:23:38.302Z,3.13
2018-09-26T04:26:07.007Z,2.77
2018-09-26T04:28:35.622Z,2.40
2018-09-26T04:31:04.213Z,2.50
2018-09-26T04:33:32.800Z,2.93
2018-09-26T04:36:01.280Z,2.70
2018-09-26T04:38:30.369Z,2.53
2018-09-26T04:40:58.907Z,2.70
2018-09-26T04:43:27.429Z,3.67
2018-09-26T04:45:55.771Z,2.63
2018-09-26T04:48:24.033Z,2.50
2018-09-26T04:50:51.956Z,2.60
2018-09-26T04:53:20.564Z,2.80
2018-09-26T04:55:48.400Z,3.07
2018-09-26T04:58:16.315Z,2.70
2018-09-26T05:00:44.212Z,2.43
2018-09-26T05:03:12.072Z,3.10
2018-09-26T05:05:39.918Z,3.00
2018-09-26T05:08:08.273Z,3.00
2018-09-26T05:10:36.560Z,3.03
2018-09-26T05:13:04.648Z,2.90
2018-09-26T05:15:32.696Z,2.47
2018-09-26T05:18:00.544Z,2.30
2018-09-26T05:20:28.398Z,3.10
2018-09-26T05:22:56.295Z,3.30
2018-09-26T05:25:24.283Z,2.57
2018-09-26T05:27:52.196Z,2.53
2018-09-26T05:30:21.645Z,3.87
2018-09-26T05:32:50.283Z,2.87
2018-09-26T05:35:18.884Z,2.90
2018-09-26T05:37:47.372Z,4.23
2018-09-26T05:40:16.272Z,3.70
2018-09-26T05:42:45.301Z,3.70
2018-09-26T05:45:13.875Z,3.83
2018-09-26T05:47:42.252Z,3.70
2018-09-26T05:50:10.743Z,4.20
2018-09-26T05:52:39.138Z,3.97
2018-09-26T05:55:07.777Z,4.30
2018-09-26T05:57:36.441Z,3.67
2018-09-26T06:00:04.393Z,3.90
2018-09-26T06:02:32.233Z,3.67
2018-09-26T06:05:00.087Z,3.77
2018-09-26T06:07:28.635Z,3.93
2018-09-26T06:09:57.268Z,4.27
2018-09-26T06:12:25.924Z,4.23
2018-09-26T06:14:54.600Z,3.63
2018-09-26T06:17:23.166Z,5.27
2018-09-26T06:19:51.171Z,5.97
2018-09-26T06:22:19.629Z,4.53
2018-09-26T06:24:47.897Z,5.33
2018-09-26T06:27:16.369Z,5.40
2018-09-26T06:29:44.989Z,6.57
2018-09-26T06:32:13.611Z,6.33
2018-09-26T06:34:42.254Z,6.50
2018-09-26T06:37:10.802Z,7.00
2018-09-26T06:39:39.492Z,7.30
2018-09-26T06:42:08.160Z,7.30
2018-09-26T06:44:36.807Z,7.23
2018-09-26T06:47:05.575Z,7.33
2018-09-26T06:49:33.854Z,7.17
2018-09-26T06:52:02.324Z,5.73
2018-09-26T06:54:30.953Z,5.20
2018-09-26T06:56:59.577Z,5.20
2018-09-26T06:59:28.236Z,5.27
2018-09-26T07:01:56.883Z,4.67
2018-09-26T07:04:25.305Z,4.70
2018-09-26T07:06:53.723Z,4.67
2018-09-26T07:09:22.228Z,4.13
2018-09-26T07:11:50.861Z,3.90
2018-09-26T07:14:19.421Z,4.30
2018-09-26T07:16:47.886Z,4.40
2018-09-26T07:19:16.573Z,4.00
2018-09-26T07:21:44.948Z,4.03
2018-09-26T07:24:13.432Z,4.83
2018-09-26T07:26:41.801Z,4.70
2018-09-26T07:29:10.532Z,3.73
2018-09-26T07:31:38.893Z,4.93
2018-09-26T07:34:07.468Z,4.33
2018-09-26T07:36:36.016Z,4.27
2018-09-26T07:39:05.398Z,4.27
2018-09-26T07:41:34.059Z,4.63
2018-09-26T07:44:02.719Z,4.57
2018-09-26T07:46:31.326Z,4.30
2018-09-26T07:48:59.979Z,4.63
2018-09-26T07:51:28.688Z,4.43
2018-09-26T07:53:57.240Z,5.10
2018-09-26T07:56:25.865Z,4.77
2018-09-26T07:58:54.519Z,4.97
2018-09-26T08:01:23.144Z,4.97
2018-09-26T08:03:51.576Z,5.00
2018-09-26T08:06:20.223Z,5.77
2018-09-26T08:08:48.657Z,4.93
2018-09-26T08:11:17.341Z,6.10
2018-09-26T08:13:45.941Z,6.13
2018-09-26T08:16:14.388Z,4.73
2018-09-26T08:18:43.102Z,5.00
2018-09-26T08:21:11.410Z,4.10
2018-09-26T08:23:39.930Z,6.03
2018-09-26T08:26:08.534Z,4.87
2018-09-26T08:28:37.191Z,4.27
2018-09-26T08:31:05.796Z,4.47
2018-09-26T08:33:34.442Z,4.03
2018-09-26T08:36:03.066Z,3.60
2018-09-26T08:38:31.505Z,4.00
2018-09-26T08:41:00.091Z,4.07
2018-09-26T08:43:28.589Z,4.40
2018-09-26T08:45:56.996Z,4.40
2018-09-26T08:48:25.462Z,4.27
2018-09-26T08:50:54.109Z,4.93
2018-09-26T08:53:22.737Z,5.47
2018-09-26T08:55:51.748Z,4.83
2018-09-26T08:58:20.196Z,4.87
2018-09-26T09:00:52.797Z,5.10
2018-09-26T09:03:21.217Z,5.23
2018-09-26T09:05:49.832Z,4.83
2018-09-26T09:08:17.708Z,5.50
2018-09-26T09:10:46.361Z,5.13
2018-09-26T09:13:14.948Z,5.43
2018-09-26T09:15:43.417Z,6.23
2018-09-26T09:18:11.884Z,5.57
2018-09-26T09:20:40.269Z,5.20
2018-09-26T09:23:08.713Z,5.00
2018-09-26T09:25:37.153Z,4.97
2018-09-26T09:28:05.713Z,4.77
2018-09-26T09:30:34.027Z,4.57
2018-09-26T09:33:02.501Z,3.43
2018-09-26T09:35:30.889Z,3.03
2018-09-26T09:37:59.163Z,3.90
2018-09-26T09:40:27.629Z,2.93
2018-09-26T09:42:56.004Z,2.90
2018-09-26T09:45:24.268Z,3.30
2018-09-26T09:47:52.736Z,2.87
2018-09-26T09:50:21.441Z,3.17
2018-09-26T09:52:50.010Z,2.83
2018-09-26T09:55:18.652Z,2.17
2018-09-26T09:57:47.306Z,2.47
2018-09-26T10:00:15.962Z,2.50
2018-09-26T10:02:44.456Z,1.97
2018-09-26T10:05:12.766Z,2.00
2018-09-26T10:07:41.237Z,2.20
2018-09-26T10:10:09.645Z,2.17
2018-09-26T10:12:38.109Z,2.13
2018-09-26T10:15:06.758Z,2.10
2018-09-26T10:17:35.432Z,2.03
2018-09-26T10:20:03.949Z,2.00
2018-09-26T10:22:32.482Z,2.10
2018-09-26T10:25:01.130Z,2.40
2018-09-26T10:27:29.757Z,2.10
2018-09-26T10:29:58.389Z,1.80
2018-09-26T10:32:27.118Z,1.87
2018-09-26T10:34:55.465Z,2.10
2018-09-26T10:37:23.856Z,2.57
2018-09-26T10:39:52.335Z,2.40
2018-09-26T10:42:21.053Z,2.40
2018-09-26T10:44:49.696Z,2.70
2018-09-26T10:47:18.652Z,2.73
2018-09-26T10:49:47.263Z,2.40
2018-09-26T10:52:15.721Z,2.40
2018-09-26T10:54:44.370Z,2.23
2018-09-26T10:57:13.024Z,2.27
2018-09-26T10:59:41.480Z,2.40
2018-09-26T11:02:10.937Z,3.37
2018-09-26T11:04:39.547Z,2.90
2018-09-26T11:07:07.892Z,2.40
2018-09-26T11:09:36.358Z,2.53
2018-09-26T11:12:04.257Z,2.53
2018-09-26T11:14:32.649Z,2.00
2018-09-26T11:17:01.366Z,2.50
2018-09-26T11:19:29.955Z,2.20
2018-09-26T11:21:58.418Z,2.53
2018-09-26T11:24:26.401Z,3.27
2018-09-26T11:26:54.945Z,2.10
2018-09-26T11:29:23.532Z,2.50
2018-09-26T11:31:52.171Z,2.70
2018-09-26T11:34:20.759Z,1.90
2018-09-26T11:36:49.263Z,2.33
2018-09-26T11:39:18.053Z,2.53
2018-09-26T11:41:47.019Z,2.30
2018-09-26T11:44:15.789Z,2.10
2018-09-26T11:46:44.357Z,1.67
2018-09-26T11:49:12.977Z,2.10
2018-09-26T11:51:41.945Z,2.07
2018-09-26T11:54:10.441Z,1.80
2018-09-26T11:56:39.074Z,1.77
2018-09-26T11:59:07.791Z,2.00
2018-09-26T12:01:35.610Z,2.20
2018-09-26T12:04:04.009Z,1.93
2018-09-26T12:06:31.866Z,2.00
2018-09-26T12:09:00.165Z,2.20
2018-09-26T12:11:28.522Z,3.10
2018-09-26T12:13:57.007Z,2.53
2018-09-26T12:16:25.673Z,2.40
2018-09-26T12:18:54.265Z,1.90
2018-09-26T12:21:30.444Z,2.40
2018-09-26T12:23:50.508Z,1.97
2018-09-26T12:26:18.783Z,2.17
2018-09-26T12:28:47.437Z,2.10
2018-09-26T12:31:16.093Z,2.00
2018-09-26T12:33:44.466Z,2.00
2018-09-26T12:36:12.403Z,1.87
2018-09-26T12:38:40.244Z,2.53
2018-09-26T12:41:08.968Z,1.90
2018-09-26T12:43:37.216Z,2.37
2018-09-26T12:46:05.760Z,2.33
2018-09-26T12:48:34.276Z,2.03
2018-09-26T12:51:02.048Z,2.23
2018-09-26T12:53:30.658Z,1.80
2018-09-26T12:55:59.267Z,1.80
2018-09-26T12:58:27.712Z,2.00
2018-09-26T13:00:56.369Z,1.93
2018-09-26T13:03:24.981Z,2.37
2018-09-26T13:05:53.634Z,1.60
2018-09-26T13:08:22.104Z,1.83
2018-09-26T13:10:50.481Z,1.73
2018-09-26T13:13:19.345Z,1.80
2018-09-26T13:15:47.689Z,2.13
2018-09-26T13:18:16.219Z,2.00
2018-09-26T13:20:44.846Z,1.80
2018-09-26T13:23:13.460Z,2.03
2018-09-26T13:25:41.719Z,1.80
2018-09-26T13:28:10.396Z,1.87
2018-09-26T13:30:39.050Z,2.00
2018-09-26T13:33:07.634Z,1.77
2018-09-26T13:35:36.283Z,2.10
2018-09-26T13:38:04.147Z,2.40
2018-09-26T13:40:32.549Z,2.70
2018-09-26T13:43:01.285Z,1.73
2018-09-26T13:45:29.855Z,2.10
2018-09-26T13:47:58.229Z,2.43
2018-09-26T13:50:26.692Z,2.20
2018-09-26T13:52:55.166Z,2.03
2018-09-26T13:55:23.796Z,2.77
2018-09-26T13:57:52.447Z,2.00
2018-09-26T14:00:20.360Z,2.00
2018-09-26T14:02:48.812Z,2.13
2018-09-26T14:05:17.333Z,1.97
2018-09-26T14:07:45.767Z,1.97
2018-09-26T14:10:14.404Z,1.80
2018-09-26T14:12:42.593Z,2.00
2018-09-26T14:15:11.158Z,1.97
2018-09-26T14:17:39.790Z,2.03
2018-09-26T14:20:08.407Z,2.27
2018-09-26T14:22:36.836Z,3.00
2018-09-26T14:25:04.697Z,1.87
2018-09-26T14:27:32.547Z,2.53
2018-09-26T14:30:00.454Z,2.10
2018-09-26T14:32:28.278Z,2.37
2018-09-26T14:34:56.124Z,1.87
2018-09-26T14:37:23.966Z,2.03
2018-09-26T14:39:51.837Z,2.23
2018-09-26T14:42:20.424Z,1.93
2018-09-26T14:44:48.427Z,2.20
2018-09-26T14:47:16.260Z,1.83
2018-09-26T14:49:44.725Z,1.87
2018-09-26T14:52:12.600Z,1.97
2018-09-26T14:54:40.452Z,2.00
2018-09-26T14:57:08.355Z,2.00
2018-09-26T14:59:36.201Z,2.30
2018-09-26T15:02:04.237Z,2.23
2018-09-26T15:04:32.912Z,2.03
2018-09-26T15:07:01.457Z,2.70
2018-09-26T15:09:29.868Z,2.00
2018-09-26T15:11:57.928Z,1.93
2018-09-26T15:14:25.866Z,2.10
2018-09-26T15:16:53.716Z,1.90
2018-09-26T15:19:22.098Z,1.87
2018-09-26T15:21:51.160Z,2.93
2018-09-26T15:24:19.827Z,2.43
2018-09-26T15:26:48.422Z,1.97
2018-09-26T15:29:17.024Z,1.80
2018-09-26T15:31:45.746Z,2.37
2018-09-26T15:34:14.672Z,1.80
2018-09-26T15:36:42.965Z,1.90
2018-09-26T15:39:11.949Z,1.93
2018-09-26T15:41:40.618Z,1.80
2018-09-26T15:44:09.023Z,1.80
2018-09-26T15:49:10.425Z,2.00
2018-09-26T15:51:38.627Z,2.10
2018-09-26T15:54:06.937Z,2.00
2018-09-26T15:56:35.175Z,2.00
2018-09-26T15:59:03.433Z,2.30
2018-09-26T16:01:31.643Z,2.00
2018-09-26T16:03:59.868Z,2.20
2018-09-26T16:06:28.051Z,1.77
2018-09-26T16:08:56.251Z,2.40
2018-09-26T16:11:24.463Z,1.80
2018-09-26T16:13:53.362Z,2.50
2018-09-26T16:16:22.173Z,2.30
2018-09-26T16:18:50.408Z,2.10
2018-09-26T16:21:18.602Z,2.40
2018-09-26T16:23:46.860Z,1.80
2018-09-26T16:26:15.244Z,2.00
2018-09-26T16:28:43.465Z,1.83
2018-09-26T16:31:11.681Z,2.20
2018-09-26T16:33:39.981Z,1.70
2018-09-26T16:36:08.315Z,1.70
2018-09-26T16:38:37.181Z,2.00
2018-09-26T16:41:05.482Z,1.97
2018-09-26T16:43:33.794Z,2.30
2018-09-26T16:46:02.491Z,2.13
2018-09-26T16:48:31.696Z,1.90
2018-09-26T16:51:01.258Z,2.33
2018-09-26T16:53:30.594Z,2.30
2018-09-26T16:55:59.398Z,2.33
2018-09-26T16:58:28.434Z,2.10
2018-09-26T17:00:56.724Z,2.03
2018-09-26T17:03:25.901Z,2.33
2018-09-26T17:05:54.162Z,1.80
2018-09-26T17:08:22.861Z,1.80
2018-09-26T17:10:51.160Z,2.37
2018-09-26T17:13:19.534Z,1.80
2018-09-26T17:15:48.012Z,2.37
2018-09-26T17:18:16.313Z,2.40
2018-09-26T17:20:44.592Z,2.20
2018-09-26T17:23:12.911Z,2.10
2018-09-26T17:25:41.118Z,2.23
2018-09-26T17:28:10.096Z,2.17
2018-09-26T17:30:39.451Z,2.00
2018-09-26T17:33:08.373Z,4.63
2018-09-26T17:35:37.026Z,7.63
2018-09-26T17:38:05.568Z,5.50
2018-09-26T17:40:34.157Z,7.80
2018-09-26T17:43:02.194Z,6.17
2018-09-26T17:45:30.090Z,11.97
2018-09-26T17:47:57.969Z,6.17
2018-09-26T17:50:26.542Z,9.63
2018-09-26T17:52:54.473Z,21.37
2018-09-26T17:55:22.884Z,23.47
2018-09-26T17:57:51.500Z,7.60
2018-09-26T18:00:21.202Z,13.13
2018-09-26T18:02:49.753Z,7.30
2018-09-26T18:05:18.425Z,6.07
2018-09-26T18:07:47.012Z,11.27
2018-09-26T18:10:15.453Z,3.50
2018-09-26T18:12:43.866Z,11.57
2018-09-26T18:15:11.905Z,5.20
2018-09-26T18:17:40.392Z,7.73
2018-09-26T18:20:08.266Z,6.03
2018-09-26T18:22:36.857Z,9.83
2018-09-26T18:25:05.283Z,5.37
2018-09-26T18:27:33.392Z,8.87
2018-09-26T18:30:03.225Z,4.60
2018-09-26T18:32:31.605Z,8.07
2018-09-26T18:35:00.419Z,15.13
2018-09-26T18:37:28.880Z,8.80
2018-09-26T18:39:56.741Z,7.53
2018-09-26T18:42:24.617Z,11.00
2018-09-26T18:44:53.336Z,12.70
2018-09-26T18:47:21.629Z,7.97
2018-09-26T18:49:50.346Z,11.93
2018-09-26T18:52:19.516Z,9.23
2018-09-26T18:54:47.866Z,5.73
2018-09-26T18:57:16.267Z,7.20
2018-09-26T18:59:44.718Z,12.03
2018-09-26T19:02:13.635Z,4.90
2018-09-26T19:04:42.080Z,7.10
2018-09-26T19:07:12.045Z,4.43
2018-09-26T19:09:40.942Z,4.83
2018-09-26T19:12:10.132Z,3.97
2018-09-26T19:14:38.662Z,7.37
2018-09-26T19:17:07.063Z,5.73
2018-09-26T19:19:35.426Z,6.37
2018-09-26T19:22:04.254Z,5.90
2018-09-26T19:24:32.704Z,4.90
2018-09-26T19:27:01.569Z,4.10
2018-09-26T19:29:30.878Z,5.20
2018-09-26T19:31:59.274Z,5.43
2018-09-26T19:34:27.563Z,4.77
2018-09-26T19:36:56.078Z,4.10
2018-09-26T19:39:26.829Z,4.97
2018-09-26T19:41:56.331Z,4.60
2018-09-26T19:44:25.894Z,5.60
2018-09-26T19:46:55.191Z,4.50
2018-09-26T19:49:24.337Z,4.53
2018-09-26T19:51:53.381Z,3.43
2018-09-26T19:54:22.648Z,4.03
2018-09-26T19:56:51.565Z,4.37
2018-09-26T19:59:20.073Z,3.47
2018-09-26T20:01:48.693Z,4.23
2018-09-26T20:04:17.832Z,3.50
2018-09-26T20:06:46.762Z,3.67
2018-09-26T20:09:16.151Z,4.33
2018-09-26T20:11:46.070Z,3.80
2018-09-26T20:14:15.014Z,3.27
2018-09-26T20:16:43.355Z,2.67
2018-09-26T20:19:12.691Z,2.47
2018-09-26T20:21:41.629Z,2.60
2018-09-26T20:24:09.968Z,3.07
2018-09-26T20:26:38.522Z,2.90
2018-09-26T20:29:07.085Z,2.90
2018-09-26T20:31:36.085Z,3.57
2018-09-26T20:34:05.078Z,2.87
2018-09-26T20:36:36.021Z,3.30
2018-09-26T20:39:05.510Z,3.13
2018-09-26T20:41:34.527Z,3.60
2018-09-26T20:44:04.072Z,3.30
2018-09-26T20:46:32.657Z,3.07
2018-09-26T20:49:01.390Z,3.13
2018-09-26T20:51:30.549Z,2.90
2018-09-26T20:53:59.479Z,3.87
2018-09-26T20:56:28.300Z,3.97
2018-09-26T20:58:56.829Z,3.63
2018-09-26T21:01:25.429Z,3.33
2018-09-26T21:03:53.962Z,4.23
2018-09-26T21:06:22.968Z,3.87
2018-09-26T21:08:50.811Z,4.77
2018-09-26T21:11:19.441Z,4.43
2018-09-26T21:13:47.965Z,4.53
2018-09-26T21:16:16.758Z,4.57
2018-09-26T21:18:45.443Z,5.40
2018-09-26T21:21:14.012Z,4.23
2018-09-26T21:23:42.796Z,4.53
2018-09-26T21:26:11.301Z,4.57
2018-09-26T21:28:39.949Z,5.00
2018-09-26T21:31:08.634Z,4.43
2018-09-26T21:33:37.208Z,4.37
2018-09-26T21:36:05.059Z,4.57
2018-09-26T21:38:32.958Z,4.30
2018-09-26T21:41:00.876Z,4.37
2018-09-26T21:43:28.718Z,4.33
2018-09-26T21:45:56.621Z,4.20
2018-09-26T21:48:24.536Z,8.90
2018-09-26T21:50:52.375Z,5.17
2018-09-26T21:53:20.288Z,4.43
2018-09-26T21:55:48.240Z,4.63
2018-09-26T21:58:16.893Z,4.53
2018-09-26T22:00:50.068Z,5.33
2018-09-26T22:03:18.684Z,8.23
2018-09-26T22:05:47.461Z,5.07
2018-09-26T22:08:15.415Z,4.10
2018-09-26T22:10:43.821Z,3.97
2018-09-26T22:13:11.680Z,4.47
2018-09-26T22:15:39.543Z,4.87
2018-09-26T22:18:07.381Z,4.30
2018-09-26T22:20:35.269Z,5.23
2018-09-26T22:23:03.130Z,4.80
2018-09-26T22:25:31.663Z,4.23
2018-09-26T22:27:59.522Z,3.37
2018-09-26T22:30:27.373Z,3.47
2018-09-26T22:32:55.200Z,3.57
2018-09-26T22:35:23.061Z,4.20
2018-09-26T22:37:51.520Z,3.80
2018-09-26T22:40:19.345Z,4.07
2018-09-26T22:42:47.178Z,4.30
2018-09-26T22:45:15.039Z,3.97
2018-09-26T22:47:43.502Z,4.07
2018-09-26T22:50:11.379Z,3.90
2018-09-26T22:52:39.259Z,4.13
2018-09-26T22:55:07.172Z,3.70
2018-09-26T22:57:35.030Z,4.43
2018-09-26T23:00:02.951Z,3.93
2018-09-26T23:02:31.817Z,4.17
2018-09-26T23:05:00.541Z,4.17
2018-09-26T23:07:28.816Z,4.33
2018-09-26T23:09:56.656Z,4.07
2018-09-26T23:12:24.497Z,4.10
2018-09-26T23:14:52.340Z,4.03
2018-09-26T23:17:20.232Z,4.23
2018-09-26T23:19:49.040Z,4.57
2018-09-26T23:22:17.323Z,3.63
2018-09-26T23:24:45.213Z,4.17
2018-09-26T23:27:13.113Z,4.20
2018-09-26T23:29:40.951Z,4.40
2018-09-26T23:32:08.824Z,4.10
2018-09-26T23:34:36.651Z,4.10
2018-09-26T23:37:04.509Z,4.60
2018-09-26T23:39:32.328Z,4.80
2018-09-26T23:42:00.744Z,4.33
2018-09-26T23:44:28.569Z,4.53
2018-09-26T23:46:56.972Z,4.13
2018-09-26T23:49:24.805Z,4.23
2018-09-26T23:51:53.318Z,4.27
2018-09-26T23:54:21.680Z,4.00
2018-09-26T23:56:50.218Z,4.17
2018-09-26T23:59:18.053Z,4.00
